LiveATC.Net - Listen to live air traffic control over the Internet!


ICAO: KUAO  IATA: UAO   Airport: Aurora State Airport
City: Aurora   State/Province: Oregon
Country: United States   Continent: North America
KUAO METAR Weather: KUAO 282053Z 02016KT 10SM CLR 29/07 A3015 RMK AO2 SLP206 T02890067 58025
KUAO Flight Activity (FlightAware)
KUAO Webcam:  (Airport Webcams) 
KUAO Airport Info   (iFlightPlanner)
KUAO VFR Sectional Chart   (iFlightPlanner) 
KUAO IFR Low Chart   (iFlightPlanner) 

KUAO Del/Gnd/Twr
Feed Status: UP   Listeners: 0
Listen in your browser - HTML5 player (in browser, HTML5)
Click here to listen with your own player (launches your MP3 player)
Archive Access: KUAO Del/Gnd/Twr
FacilityFrequency
Aurora Clearance Delivery119.950
Aurora CTAF (old, retiring)122.700
Aurora Ground119.150
Aurora Tower120.350

NOTICE

Unauthorized use prohibited. See LiveATC.net Terms of Service


Airport/ARTCC Code
Frequency Search
(e.g., 124.400, 128.75)
Site-wide search
 


Browse Feeds
Top 50 Feeds
Coverage Map
Bad Weather Areas

LiveATC FAQ
Offer LiveATC feed
Contact LiveATC.net
Press Inquiries

LiveATC on iPhone
LiveATC on Android

Windows Phone
Windows 8/10

LiveATC Mobile
(Mobile browser)

ATC Audio Archives
Interesting Recordings

LiveATC Forums


Home Page
About LiveATC.net
Make a Donation
Terms of Use
Privacy Policy

Canadian Air Freqs

AIRMETs/SIGMETs

FAA Airport Status
Nat'l Airspace Status
Arrival Demand Charts


Server Software By:
Icecast.org
Liquidsoap